createdAt,value
2018-03-16T00:01:00.641Z,4.06
2018-03-16T00:02:01.418Z,4.06
2018-03-16T00:03:03.004Z,4.06
2018-03-16T00:04:05.081Z,4.06
2018-03-16T00:05:04.382Z,4.06
2018-03-16T00:06:06.660Z,4.06
2018-03-16T00:07:06.125Z,4.06
2018-03-16T00:08:07.676Z,4.06
2018-03-16T00:09:08.653Z,4.06
2018-03-16T00:10:09.116Z,4.06
2018-03-16T00:11:11.914Z,4.06
2018-03-16T00:12:12.496Z,4.06
2018-03-16T00:13:14.120Z,4.06
2018-03-16T00:14:14.466Z,4.06
2018-03-16T00:15:15.771Z,4.06
2018-03-16T00:16:16.547Z,4.06
2018-03-16T00:17:17.177Z,4.06
2018-03-16T00:18:17.638Z,4.06
2018-03-16T00:19:20.299Z,4.06
2018-03-16T00:20:19.544Z,4.06
2018-03-16T00:21:21.669Z,4.06
2018-03-16T00:22:21.936Z,4.06
2018-03-16T00:23:23.173Z,4.06
2018-03-16T00:24:24.517Z,4.06
2018-03-16T00:25:24.760Z,4.06
2018-03-16T00:26:26.244Z,4.06
2018-03-16T00:27:27.322Z,4.06
2018-03-16T00:28:28.469Z,4.06
2018-03-16T00:29:29.198Z,4.06
2018-03-16T00:30:31.178Z,4.06
2018-03-16T00:31:32.993Z,4.06
2018-03-16T00:32:31.377Z,4.06
2018-03-16T00:33:33.838Z,4.06
2018-03-16T00:34:33.988Z,4.06
2018-03-16T00:35:34.099Z,4.06
2018-03-16T00:36:36.170Z,4.06
2018-03-16T00:37:37.700Z,4.06
2018-03-16T00:38:37.912Z,4.06
2018-03-16T00:39:38.809Z,4.06
2018-03-16T00:40:40.623Z,4.06
2018-03-16T00:41:41.087Z,4.06
2018-03-16T00:42:42.440Z,4.06
2018-03-16T00:43:44.906Z,4.06
2018-03-16T00:44:44.692Z,4.06
2018-03-16T00:45:45.155Z,4.06
2018-03-16T00:46:47.256Z,4.06
2018-03-16T00:47:46.493Z,4.06
2018-03-16T00:48:48.132Z,4.06
2018-03-16T00:49:48.495Z,4.06
2018-03-16T00:50:49.889Z,4.06
2018-03-16T00:51:51.308Z,4.06
2018-03-16T00:52:51.858Z,4.06
2018-03-16T00:53:53.016Z,4.13
2018-03-16T00:54:54.014Z,4.06
2018-03-16T00:55:54.003Z,4.06
2018-03-16T00:56:57.205Z,4.06
2018-03-16T00:57:56.630Z,4.06
2018-03-16T00:58:56.907Z,4.06
2018-03-16T00:59:57.884Z,4.06
2018-03-16T01:00:59.748Z,4.06
2018-03-16T01:02:00.956Z,4.13
2018-03-16T01:03:01.610Z,4.06
2018-03-16T01:04:03.810Z,4.06
2018-03-16T01:05:03.974Z,4.06
2018-03-16T01:06:04.352Z,4.06
2018-03-16T01:07:07.077Z,4.06
2018-03-16T01:08:07.129Z,4.13
2018-03-16T01:09:08.624Z,4.06
2018-03-16T01:10:09.281Z,4.13
2018-03-16T01:11:10.000Z,4.06
2018-03-16T01:12:10.503Z,4.06
2018-03-16T01:13:11.940Z,4.13
2018-03-16T01:14:12.108Z,4.13
2018-03-16T01:15:13.803Z,4.13
2018-03-16T01:16:13.842Z,4.06
2018-03-16T01:17:15.864Z,4.13
2018-03-16T01:18:17.436Z,4.13
2018-03-16T01:19:16.874Z,4.13
2018-03-16T01:20:17.874Z,4.13
2018-03-16T01:21:20.724Z,4.13
2018-03-16T01:22:23.849Z,4.13
2018-03-16T01:23:22.580Z,4.13
2018-03-16T01:24:25.070Z,4.13
2018-03-16T01:25:24.818Z,4.13
2018-03-16T01:26:24.923Z,4.13
2018-03-16T01:27:25.920Z,4.13
2018-03-16T01:28:26.875Z,4.13
2018-03-16T01:29:27.714Z,4.13
2018-03-16T01:30:29.308Z,4.13
2018-03-16T01:31:29.090Z,4.13
2018-03-16T01:32:30.341Z,4.13
2018-03-16T01:33:31.086Z,4.13
2018-03-16T01:34:32.813Z,4.13
2018-03-16T01:35:33.379Z,4.13
2018-03-16T01:36:36.161Z,4.13
2018-03-16T01:37:36.531Z,4.13
2018-03-16T01:38:38.233Z,4.13
2018-03-16T01:39:38.479Z,4.13
2018-03-16T01:40:39.498Z,4.13
2018-03-16T01:41:40.507Z,4.13
2018-03-16T01:42:42.012Z,4.13
2018-03-16T01:43:41.877Z,4.13
2018-03-16T01:44:43.744Z,4.13
2018-03-16T01:45:44.095Z,4.13
2018-03-16T01:46:45.376Z,4.13
2018-03-16T01:47:46.499Z,4.13
2018-03-16T01:48:47.460Z,4.13
2018-03-16T01:49:47.467Z,4.13
2018-03-16T01:50:50.072Z,4.13
2018-03-16T01:51:49.466Z,4.13
2018-03-16T01:52:51.670Z,4.13
2018-03-16T01:53:51.215Z,4.13
2018-03-16T01:54:52.142Z,4.13
2018-03-16T01:55:52.997Z,4.06
2018-03-16T01:56:54.643Z,4.06
2018-03-16T01:57:55.262Z,4.13
2018-03-16T01:58:55.899Z,4.13
2018-03-16T01:59:57.032Z,4.13
2018-03-16T02:00:59.234Z,4.13
2018-03-16T02:01:59.657Z,4.13
2018-03-16T02:03:02.301Z,4.13
2018-03-16T02:04:34.729Z,4.13
2018-03-16T02:05:02.620Z,4.13
2018-03-16T02:06:03.412Z,4.13
2018-03-16T02:07:04.264Z,4.13
2018-03-16T02:08:06.445Z,4.13
2018-03-16T02:09:07.958Z,4.13
2018-03-16T02:10:08.661Z,4.13
2018-03-16T02:11:09.011Z,4.13
2018-03-16T02:12:10.000Z,4.13
2018-03-16T02:13:10.410Z,4.13
2018-03-16T02:14:11.755Z,4.13
2018-03-16T02:15:14.196Z,4.13
2018-03-16T02:16:13.039Z,4.13
2018-03-16T02:17:14.793Z,4.13
2018-03-16T02:18:15.930Z,4.13
2018-03-16T02:19:17.368Z,4.13
2018-03-16T02:20:17.486Z,4.13
2018-03-16T02:21:19.810Z,4.13
2018-03-16T02:22:19.537Z,4.13
2018-03-16T02:23:20.822Z,4.13
2018-03-16T02:24:21.530Z,4.13
2018-03-16T02:25:23.430Z,4.13
2018-03-16T02:26:23.193Z,4.13
2018-03-16T02:27:24.265Z,4.13
2018-03-16T02:28:27.534Z,4.13
2018-03-16T02:29:26.532Z,4.13
2018-03-16T02:30:27.841Z,4.13
2018-03-16T02:31:28.890Z,4.13
2018-03-16T02:32:29.658Z,4.13
2018-03-16T02:33:30.986Z,4.13
2018-03-16T02:34:31.004Z,4.13
2018-03-16T02:35:31.918Z,4.13
2018-03-16T02:36:33.746Z,4.13
2018-03-16T02:37:34.654Z,4.13
2018-03-16T02:38:35.992Z,4.13
2018-03-16T02:39:36.728Z,4.13
2018-03-16T02:40:37.717Z,4.13
2018-03-16T02:41:39.167Z,4.13
2018-03-16T02:42:39.553Z,4.13
2018-03-16T02:43:42.378Z,4.13
2018-03-16T02:44:40.696Z,4.13
2018-03-16T02:45:42.688Z,4.13
2018-03-16T02:46:43.456Z,4.13
2018-03-16T02:47:45.910Z,4.13
2018-03-16T02:48:47.441Z,4.13
2018-03-16T02:49:47.196Z,4.13
2018-03-16T02:50:47.467Z,4.13
2018-03-16T02:51:49.566Z,4.13
2018-03-16T02:52:49.252Z,4.13
2018-03-16T02:53:51.514Z,4.13
2018-03-16T02:54:51.197Z,4.13
2018-03-16T02:55:53.015Z,4.13
2018-03-16T02:56:52.901Z,4.13
2018-03-16T02:57:55.324Z,4.13
2018-03-16T02:58:56.683Z,4.13
2018-03-16T02:59:55.938Z,4.13
2018-03-16T03:00:56.986Z,4.13
2018-03-16T03:01:57.991Z,4.13
2018-03-16T03:02:59.039Z,4.13
2018-03-16T03:04:00.399Z,4.13
2018-03-16T03:05:02.124Z,4.13
2018-03-16T03:06:03.468Z,4.13
2018-03-16T03:07:04.294Z,4.13
2018-03-16T03:08:04.640Z,4.13
2018-03-16T03:09:06.733Z,4.13
2018-03-16T03:10:06.522Z,4.13
2018-03-16T03:11:07.308Z,4.13
2018-03-16T03:12:09.460Z,4.13
2018-03-16T03:13:09.344Z,4.13
2018-03-16T03:14:11.479Z,4.13
2018-03-16T03:15:11.352Z,4.13
2018-03-16T03:16:12.631Z,4.13
2018-03-16T03:17:13.675Z,4.13
2018-03-16T03:18:14.386Z,4.13
2018-03-16T03:19:15.998Z,4.13
2018-03-16T03:20:19.070Z,4.13
2018-03-16T03:21:17.028Z,4.13
2018-03-16T03:22:18.168Z,4.13
2018-03-16T03:23:19.953Z,4.06
2018-03-16T03:24:20.412Z,4.13
2018-03-16T03:25:21.105Z,4.06
2018-03-16T03:26:22.533Z,4.06
2018-03-16T03:27:22.800Z,4.13
2018-03-16T03:28:23.941Z,4.13
2018-03-16T03:29:25.811Z,4.13
2018-03-16T03:30:26.011Z,4.13
2018-03-16T03:31:27.748Z,4.13
2018-03-16T03:32:29.227Z,4.06
2018-03-16T03:33:30.396Z,4.06
2018-03-16T03:34:30.946Z,4.06
2018-03-16T03:35:31.661Z,4.13
2018-03-16T03:36:32.395Z,4.06
2018-03-16T03:37:33.379Z,4.06
2018-03-16T03:38:35.063Z,4.06
2018-03-16T03:39:35.630Z,4.06
2018-03-16T03:40:37.180Z,4.06
2018-03-16T03:41:37.688Z,4.13
2018-03-16T03:42:38.169Z,4.13
2018-03-16T03:43:39.801Z,4.13
2018-03-16T03:44:40.804Z,4.13
2018-03-16T03:45:41.059Z,4.06
2018-03-16T03:46:42.889Z,4.06
2018-03-16T03:47:44.551Z,4.06
2018-03-16T03:48:44.941Z,4.06
2018-03-16T03:49:46.292Z,4.06
2018-03-16T03:50:47.227Z,4.13
2018-03-16T03:51:47.689Z,4.06
2018-03-16T03:52:49.612Z,4.06
2018-03-16T03:53:49.634Z,4.13
2018-03-16T03:54:52.046Z,4.06
2018-03-16T03:55:52.500Z,4.06
2018-03-16T03:56:53.498Z,4.13
2018-03-16T03:57:55.004Z,4.13
2018-03-16T03:58:55.242Z,4.13
2018-03-16T03:59:56.608Z,4.13
2018-03-16T04:00:57.148Z,4.13
2018-03-16T04:01:58.032Z,4.13
2018-03-16T04:02:59.730Z,4.13
2018-03-16T04:04:00.024Z,4.13
2018-03-16T04:05:01.464Z,4.13
2018-03-16T04:06:03.558Z,4.13
2018-03-16T04:07:03.770Z,4.13
2018-03-16T04:08:05.864Z,4.13
2018-03-16T04:09:06.692Z,4.13
2018-03-16T04:10:07.941Z,4.13
2018-03-16T04:11:07.679Z,4.13
2018-03-16T04:12:08.690Z,4.13
2018-03-16T04:13:09.676Z,4.13
2018-03-16T04:14:10.634Z,4.13
2018-03-16T04:15:11.902Z,4.13
2018-03-16T04:16:12.384Z,4.13
2018-03-16T04:17:14.273Z,4.13
2018-03-16T04:18:15.217Z,4.13
2018-03-16T04:19:15.404Z,4.13
2018-03-16T04:20:17.098Z,4.13
2018-03-16T04:21:17.076Z,4.13
2018-03-16T04:22:18.301Z,4.13
2018-03-16T04:23:19.890Z,4.13
2018-03-16T04:24:20.173Z,4.13
2018-03-16T04:25:22.059Z,4.13
2018-03-16T04:26:21.876Z,4.13
2018-03-16T04:27:23.644Z,4.13
2018-03-16T04:28:23.896Z,4.13
2018-03-16T04:29:25.821Z,4.13
2018-03-16T04:30:27.532Z,4.13
2018-03-16T04:31:27.518Z,4.13
2018-03-16T04:32:28.540Z,4.13
2018-03-16T04:33:29.510Z,4.13
2018-03-16T04:34:30.578Z,4.13
2018-03-16T04:35:31.972Z,4.13
2018-03-16T04:36:32.613Z,4.13
2018-03-16T04:37:34.230Z,4.13
2018-03-16T04:38:34.949Z,4.13
2018-03-16T04:39:35.947Z,4.13
2018-03-16T04:40:37.231Z,4.13
2018-03-16T04:41:36.948Z,4.19
2018-03-16T04:42:38.926Z,4.13
2018-03-16T04:43:39.463Z,4.13
2018-03-16T04:44:40.056Z,4.13
2018-03-16T04:45:41.952Z,4.19
2018-03-16T04:46:43.692Z,4.19
2018-03-16T04:47:43.730Z,4.19
2018-03-16T04:48:45.027Z,4.19
2018-03-16T04:49:46.336Z,4.19
2018-03-16T04:50:47.070Z,4.19
2018-03-16T04:51:47.385Z,4.19
2018-03-16T04:52:49.984Z,4.19
2018-03-16T04:53:50.039Z,4.19
2018-03-16T04:54:51.610Z,4.19
2018-03-16T04:55:51.800Z,4.19
2018-03-16T04:56:52.448Z,4.19
2018-03-16T04:57:53.761Z,4.19
2018-03-16T04:58:54.180Z,4.19
2018-03-16T04:59:55.843Z,4.19
2018-03-16T05:00:56.513Z,4.19
2018-03-16T05:01:58.111Z,4.19
2018-03-16T05:02:58.355Z,4.25
2018-03-16T05:03:59.959Z,4.25
2018-03-16T05:05:00.208Z,4.19
2018-03-16T05:06:02.070Z,4.19
2018-03-16T05:07:03.281Z,4.25
2018-03-16T05:08:04.248Z,4.25
2018-03-16T05:09:05.106Z,4.25
2018-03-16T05:10:07.515Z,4.25
2018-03-16T05:11:09.789Z,4.25
2018-03-16T05:12:08.704Z,4.25
2018-03-16T05:13:11.174Z,4.25
2018-03-16T05:14:10.718Z,4.25
2018-03-16T05:15:12.673Z,4.25
2018-03-16T05:16:13.686Z,4.25
2018-03-16T05:17:14.218Z,4.25
2018-03-16T05:18:14.494Z,4.25
2018-03-16T05:19:15.556Z,4.25
2018-03-16T05:20:16.405Z,4.25
2018-03-16T05:21:18.357Z,4.25
2018-03-16T05:22:18.793Z,4.25
2018-03-16T05:23:20.098Z,4.25
2018-03-16T05:24:40.787Z,4.25
2018-03-16T05:25:21.971Z,4.25
2018-03-16T05:26:23.800Z,4.25
2018-03-16T05:27:23.089Z,4.25
2018-03-16T05:28:24.856Z,4.25
2018-03-16T05:29:25.845Z,4.25
2018-03-16T05:30:26.847Z,4.25
2018-03-16T05:31:28.980Z,4.25
2018-03-16T05:32:28.763Z,4.25
2018-03-16T05:33:31.383Z,4.31
2018-03-16T05:34:31.503Z,4.31
2018-03-16T05:35:33.017Z,4.31
2018-03-16T05:36:33.179Z,4.25
2018-03-16T05:37:34.257Z,4.25
2018-03-16T05:38:35.022Z,4.31
2018-03-16T05:39:36.452Z,4.31
2018-03-16T05:40:37.056Z,4.31
2018-03-16T05:41:38.139Z,4.31
2018-03-16T05:42:38.627Z,4.31
2018-03-16T05:43:39.417Z,4.31
2018-03-16T05:44:41.760Z,4.31
2018-03-16T05:45:41.788Z,4.31
2018-03-16T05:46:42.495Z,4.31
2018-03-16T05:47:44.391Z,4.31
2018-03-16T05:48:44.876Z,4.31
2018-03-16T05:49:44.871Z,4.31
2018-03-16T05:50:46.560Z,4.31
2018-03-16T05:51:48.332Z,4.31
2018-03-16T05:52:49.251Z,4.31
2018-03-16T05:53:50.050Z,4.31
2018-03-16T05:54:51.711Z,4.31
2018-03-16T05:55:52.732Z,4.31
2018-03-16T05:56:53.216Z,4.31
2018-03-16T05:57:53.158Z,4.31
2018-03-16T05:58:54.589Z,4.31
2018-03-16T05:59:55.584Z,4.31
2018-03-16T06:00:55.968Z,4.31
2018-03-16T06:01:57.946Z,4.38
2018-03-16T06:03:02.139Z,4.31
2018-03-16T06:04:00.142Z,4.31
2018-03-16T06:05:01.338Z,4.38
2018-03-16T06:06:02.294Z,4.38
2018-03-16T06:07:02.228Z,4.38
2018-03-16T06:08:02.958Z,4.38
2018-03-16T06:09:04.418Z,4.38
2018-03-16T06:10:05.809Z,4.38
2018-03-16T06:11:06.636Z,4.38
2018-03-16T06:12:07.466Z,4.38
2018-03-16T06:13:08.386Z,4.38
2018-03-16T06:14:09.108Z,4.38
2018-03-16T06:15:10.357Z,4.38
2018-03-16T06:16:11.588Z,4.38
2018-03-16T06:17:13.769Z,4.38
2018-03-16T06:18:13.857Z,4.38
2018-03-16T06:19:15.643Z,4.38
2018-03-16T06:20:15.870Z,4.38
2018-03-16T06:21:16.809Z,4.38
2018-03-16T06:22:18.877Z,4.38
2018-03-16T06:23:18.818Z,4.38
2018-03-16T06:24:20.492Z,4.38
2018-03-16T06:25:21.259Z,4.38
2018-03-16T06:26:21.256Z,4.38
2018-03-16T06:27:24.216Z,4.38
2018-03-16T06:28:23.555Z,4.38
2018-03-16T06:29:24.457Z,4.38
2018-03-16T06:30:25.786Z,4.38
2018-03-16T06:31:27.502Z,4.44
2018-03-16T06:32:27.582Z,4.38
2018-03-16T06:33:29.211Z,4.44
2018-03-16T06:34:30.171Z,4.44
2018-03-16T06:35:30.498Z,4.44
2018-03-16T06:36:33.051Z,4.44
2018-03-16T06:37:32.580Z,4.44
2018-03-16T06:38:32.930Z,4.44
2018-03-16T06:39:35.613Z,4.44
2018-03-16T06:40:35.562Z,4.44
2018-03-16T06:41:36.927Z,4.44
2018-03-16T06:42:38.750Z,4.44
2018-03-16T06:43:40.182Z,4.44
2018-03-16T06:44:41.532Z,4.44
2018-03-16T06:45:41.204Z,4.44
2018-03-16T06:46:41.471Z,4.44
2018-03-16T06:47:43.849Z,4.44
2018-03-16T06:48:44.971Z,4.44
2018-03-16T06:49:45.278Z,4.44
2018-03-16T06:50:46.345Z,4.44
2018-03-16T06:51:47.000Z,4.44
2018-03-16T06:52:47.617Z,4.44
2018-03-16T06:53:48.280Z,4.44
2018-03-16T06:54:50.855Z,4.44
2018-03-16T06:55:51.515Z,4.44
2018-03-16T06:56:51.715Z,4.44
2018-03-16T06:57:53.158Z,4.44
2018-03-16T06:58:53.145Z,4.44
2018-03-16T06:59:54.466Z,4.44
2018-03-16T07:00:54.997Z,4.44
2018-03-16T07:01:57.440Z,4.44
2018-03-16T07:02:58.349Z,4.44
2018-03-16T07:04:00.542Z,4.44
2018-03-16T07:05:00.376Z,4.44
2018-03-16T07:06:01.599Z,4.44
2018-03-16T07:07:02.424Z,4.44
2018-03-16T07:08:03.537Z,4.44
2018-03-16T07:09:03.536Z,4.44
2018-03-16T07:10:06.064Z,4.44
2018-03-16T07:11:05.770Z,4.44
2018-03-16T07:12:06.758Z,4.44
2018-03-16T07:13:08.542Z,4.44
2018-03-16T07:14:09.030Z,4.5
2018-03-16T07:15:09.474Z,4.5
2018-03-16T07:16:10.342Z,4.5
2018-03-16T07:17:12.202Z,4.44
2018-03-16T07:18:14.757Z,4.5
2018-03-16T07:19:13.911Z,4.5
2018-03-16T07:20:15.192Z,4.5
2018-03-16T07:21:16.561Z,4.5
2018-03-16T07:22:17.698Z,4.5
2018-03-16T07:23:19.178Z,4.5
2018-03-16T07:24:19.309Z,4.5
2018-03-16T07:25:19.328Z,4.5
2018-03-16T07:26:21.037Z,4.5
2018-03-16T07:27:23.056Z,4.5
2018-03-16T07:28:23.733Z,4.5
2018-03-16T07:29:25.771Z,4.5
2018-03-16T07:30:26.713Z,4.5
2018-03-16T07:31:27.650Z,4.5
2018-03-16T07:32:28.526Z,4.5
2018-03-16T07:33:30.132Z,4.5
2018-03-16T07:34:30.496Z,4.5
2018-03-16T07:35:31.256Z,4.5
2018-03-16T07:36:32.225Z,4.5
2018-03-16T07:37:33.189Z,4.5
2018-03-16T07:38:34.694Z,4.5
2018-03-16T07:39:35.282Z,4.5
2018-03-16T07:40:35.937Z,4.5
2018-03-16T07:41:36.578Z,4.5
2018-03-16T07:42:38.207Z,4.5
2018-03-16T07:43:39.241Z,4.5
2018-03-16T07:44:39.666Z,4.5
2018-03-16T07:45:41.050Z,4.5
2018-03-16T07:46:41.265Z,4.5
2018-03-16T07:47:43.066Z,4.5
2018-03-16T07:48:44.860Z,4.5
2018-03-16T07:49:44.666Z,4.5
2018-03-16T07:50:44.966Z,4.56
2018-03-16T07:51:49.018Z,4.5
2018-03-16T07:52:48.500Z,4.5
2018-03-16T07:53:48.458Z,4.5
2018-03-16T07:54:49.842Z,4.5
2018-03-16T07:55:49.996Z,4.5
2018-03-16T07:56:51.640Z,4.56
2018-03-16T07:57:54.098Z,4.56
2018-03-16T07:58:54.674Z,4.56
2018-03-16T07:59:55.939Z,4.56
2018-03-16T08:00:56.330Z,4.56
2018-03-16T08:01:57.936Z,4.56
2018-03-16T08:02:57.694Z,4.56
2018-03-16T08:03:59.077Z,4.56
2018-03-16T08:04:59.458Z,4.56
2018-03-16T08:06:00.532Z,4.56
2018-03-16T08:07:03.653Z,4.56
2018-03-16T08:08:03.154Z,4.56
2018-03-16T08:09:05.846Z,4.56
2018-03-16T08:10:04.476Z,4.56
2018-03-16T08:11:06.805Z,4.56
2018-03-16T08:12:06.534Z,4.56
2018-03-16T08:13:08.152Z,4.56
2018-03-16T08:14:08.941Z,4.56
2018-03-16T08:15:11.036Z,4.56
2018-03-16T08:16:10.438Z,4.56
2018-03-16T08:17:11.871Z,4.56
2018-03-16T08:18:12.632Z,4.56
2018-03-16T08:19:14.278Z,4.56
2018-03-16T08:20:14.434Z,4.56
2018-03-16T08:21:15.600Z,4.56
2018-03-16T08:22:16.512Z,4.56
2018-03-16T08:23:17.322Z,4.56
2018-03-16T08:24:18.400Z,4.56
2018-03-16T08:25:19.554Z,4.56
2018-03-16T08:26:20.941Z,4.56
2018-03-16T08:27:21.994Z,4.56
2018-03-16T08:28:23.602Z,4.56
2018-03-16T08:29:24.466Z,4.56
2018-03-16T08:30:25.097Z,4.56
2018-03-16T08:31:26.791Z,4.56
2018-03-16T08:32:26.167Z,4.56
2018-03-16T08:33:28.751Z,4.56
2018-03-16T08:34:28.552Z,4.56
2018-03-16T08:35:29.370Z,4.56
2018-03-16T08:36:32.276Z,4.56
2018-03-16T08:37:31.395Z,4.56
2018-03-16T08:38:33.103Z,4.56
2018-03-16T08:39:33.839Z,4.56
2018-03-16T08:40:34.980Z,4.56
2018-03-16T08:41:35.648Z,4.56
2018-03-16T08:42:38.004Z,4.56
2018-03-16T08:43:37.732Z,4.56
2018-03-16T08:44:39.324Z,4.56
2018-03-16T08:45:39.155Z,4.56
2018-03-16T08:46:40.478Z,4.56
2018-03-16T08:47:43.190Z,4.56
2018-03-16T08:48:43.548Z,4.56
2018-03-16T08:49:45.546Z,4.56
2018-03-16T08:50:44.823Z,4.56
2018-03-16T08:51:46.866Z,4.56
2018-03-16T08:52:47.564Z,4.56
2018-03-16T08:53:49.288Z,4.56
2018-03-16T08:54:49.864Z,4.56
2018-03-16T08:55:51.494Z,4.56
2018-03-16T08:56:53.004Z,4.56
2018-03-16T08:57:53.340Z,4.56
2018-03-16T08:58:53.658Z,4.56
2018-03-16T08:59:55.736Z,4.56
2018-03-16T09:00:56.470Z,4.56
2018-03-16T09:01:56.452Z,4.56
2018-03-16T09:02:57.395Z,4.56
2018-03-16T09:03:59.991Z,4.56
2018-03-16T09:05:00.089Z,4.56
2018-03-16T09:06:01.136Z,4.56
2018-03-16T09:07:02.139Z,4.56
2018-03-16T09:08:03.839Z,4.56
2018-03-16T09:09:03.878Z,4.56
2018-03-16T09:10:05.828Z,4.56
2018-03-16T09:11:05.880Z,4.56
2018-03-16T09:12:06.418Z,4.56
2018-03-16T09:13:08.101Z,4.56
2018-03-16T09:14:10.732Z,4.56
2018-03-16T09:15:10.052Z,4.56
2018-03-16T09:16:10.705Z,4.56
2018-03-16T09:17:12.148Z,4.56
2018-03-16T09:18:13.120Z,4.56
2018-03-16T09:19:14.737Z,4.56
2018-03-16T09:20:14.604Z,4.56
2018-03-16T09:21:15.533Z,4.56
2018-03-16T09:22:17.168Z,4.56
2018-03-16T09:23:17.463Z,4.56
2018-03-16T09:24:18.542Z,4.56
2018-03-16T09:25:21.534Z,4.56
2018-03-16T09:26:20.073Z,4.56
2018-03-16T09:27:22.226Z,4.56
2018-03-16T09:28:23.300Z,4.56
2018-03-16T09:29:25.150Z,4.56
2018-03-16T09:30:25.585Z,4.56
2018-03-16T09:31:26.196Z,4.56
2018-03-16T09:32:26.350Z,4.56
2018-03-16T09:33:28.809Z,4.56
2018-03-16T09:34:28.359Z,4.56
2018-03-16T09:35:29.679Z,4.56
2018-03-16T09:36:31.335Z,4.56
2018-03-16T09:37:31.739Z,4.56
2018-03-16T09:38:32.783Z,4.56
2018-03-16T09:39:34.244Z,4.56
2018-03-16T09:40:38.086Z,4.56
2018-03-16T09:41:35.536Z,4.56
2018-03-16T09:42:36.206Z,4.56
2018-03-16T09:43:37.397Z,4.56
2018-03-16T09:44:38.549Z,4.56
2018-03-16T09:45:39.445Z,4.56
2018-03-16T09:46:41.952Z,4.56
2018-03-16T09:47:42.484Z,4.56
2018-03-16T09:48:43.072Z,4.56
2018-03-16T09:49:43.549Z,4.56
2018-03-16T09:50:45.184Z,4.56
2018-03-16T09:51:46.185Z,4.56
2018-03-16T09:52:47.138Z,4.56
2018-03-16T09:53:47.657Z,4.56
2018-03-16T09:54:48.351Z,4.56
2018-03-16T09:55:50.113Z,4.56
2018-03-16T09:56:50.823Z,4.56
2018-03-16T09:57:51.663Z,4.56
2018-03-16T09:58:53.351Z,4.56
2018-03-16T09:59:55.246Z,4.56
2018-03-16T10:00:55.891Z,4.56
2018-03-16T10:01:55.004Z,4.56
2018-03-16T10:02:56.408Z,4.56
2018-03-16T10:03:58.316Z,4.56
2018-03-16T10:05:00.040Z,4.56
2018-03-16T10:05:59.736Z,4.56
2018-03-16T10:07:01.438Z,4.56
2018-03-16T10:08:01.230Z,4.56
2018-03-16T10:09:03.077Z,4.56
2018-03-16T10:10:04.182Z,4.56
2018-03-16T10:11:04.994Z,4.56
2018-03-16T10:12:05.625Z,4.56
2018-03-16T10:13:07.022Z,4.56
2018-03-16T10:14:06.906Z,4.56
2018-03-16T10:15:07.854Z,4.56
2018-03-16T10:16:09.686Z,4.56
2018-03-16T10:17:11.113Z,4.56
2018-03-16T10:18:12.179Z,4.56
2018-03-16T10:19:13.538Z,4.56
2018-03-16T10:20:13.160Z,4.56
2018-03-16T10:21:15.237Z,4.56
2018-03-16T10:22:16.202Z,4.56
2018-03-16T10:23:19.363Z,4.56
2018-03-16T10:24:18.507Z,4.56
2018-03-16T10:25:19.353Z,4.56
2018-03-16T10:26:20.895Z,4.56
2018-03-16T10:27:20.359Z,4.56
2018-03-16T10:28:22.280Z,4.56
2018-03-16T10:29:25.694Z,4.56
2018-03-16T10:30:24.073Z,4.56
2018-03-16T10:31:25.369Z,4.56
2018-03-16T10:32:58.624Z,4.56
2018-03-16T10:33:26.908Z,4.56
2018-03-16T10:34:27.451Z,4.56
2018-03-16T10:35:29.619Z,4.56
2018-03-16T10:36:29.900Z,4.56
2018-03-16T10:37:31.642Z,4.56
2018-03-16T10:38:30.985Z,4.56
2018-03-16T10:39:32.824Z,4.56
2018-03-16T10:40:34.327Z,4.56
2018-03-16T10:41:34.381Z,4.56
2018-03-16T10:42:37.064Z,4.56
2018-03-16T10:43:38.229Z,4.56
2018-03-16T10:44:38.490Z,4.56
2018-03-16T10:45:39.354Z,4.56
2018-03-16T10:46:41.492Z,4.56
2018-03-16T10:47:41.142Z,4.56
2018-03-16T10:48:42.204Z,4.56
2018-03-16T10:49:43.230Z,4.56
2018-03-16T10:50:43.870Z,4.56
2018-03-16T10:51:45.504Z,4.56
2018-03-16T10:52:46.226Z,4.56
2018-03-16T10:53:47.022Z,4.56
2018-03-16T10:54:48.540Z,4.56
2018-03-16T10:55:48.914Z,4.56
2018-03-16T10:56:52.803Z,4.56
2018-03-16T10:57:50.075Z,4.56
2018-03-16T10:58:52.391Z,4.56
2018-03-16T10:59:53.342Z,4.56
2018-03-16T11:00:53.140Z,4.56
2018-03-16T11:01:54.792Z,4.56
2018-03-16T11:02:55.886Z,4.56
2018-03-16T11:03:57.816Z,4.56
2018-03-16T11:04:58.876Z,4.56
2018-03-16T11:05:58.689Z,4.56
2018-03-16T11:07:00.050Z,4.56
2018-03-16T11:07:59.944Z,4.56
2018-03-16T11:09:00.914Z,4.56
2018-03-16T11:10:02.073Z,4.56
2018-03-16T11:11:03.560Z,4.56
2018-03-16T11:12:05.870Z,4.56
2018-03-16T11:13:05.856Z,4.56
2018-03-16T11:14:07.080Z,4.56
2018-03-16T11:15:08.314Z,4.56
2018-03-16T11:16:10.479Z,4.56
2018-03-16T11:17:11.223Z,4.56
2018-03-16T11:18:12.385Z,4.56
2018-03-16T11:19:12.213Z,4.56
2018-03-16T11:20:12.584Z,4.56
2018-03-16T11:21:13.555Z,4.56
2018-03-16T11:22:14.889Z,4.56
2018-03-16T11:23:16.621Z,4.56
2018-03-16T11:24:19.625Z,4.56
2018-03-16T11:25:19.023Z,4.56
2018-03-16T11:26:19.106Z,4.56
2018-03-16T11:27:22.299Z,4.56
2018-03-16T11:28:21.068Z,4.56
2018-03-16T11:29:22.092Z,4.56
2018-03-16T11:30:23.854Z,4.56
2018-03-16T11:31:24.121Z,4.56
2018-03-16T11:32:26.154Z,4.56
2018-03-16T11:33:26.027Z,4.56
2018-03-16T11:34:26.430Z,4.56
2018-03-16T11:35:27.447Z,4.56
2018-03-16T11:36:29.549Z,4.56
2018-03-16T11:37:29.869Z,4.56
2018-03-16T11:38:30.823Z,4.56
2018-03-16T11:39:31.739Z,4.56
2018-03-16T11:40:32.796Z,4.56
2018-03-16T11:41:33.304Z,4.56
2018-03-16T11:42:36.066Z,4.56
2018-03-16T11:43:36.977Z,4.56
2018-03-16T11:44:38.804Z,4.56
2018-03-16T11:45:38.321Z,4.56
2018-03-16T11:46:38.848Z,4.56
2018-03-16T11:47:41.148Z,4.56
2018-03-16T11:48:41.390Z,4.56
2018-03-16T11:49:42.139Z,4.56
2018-03-16T11:50:42.726Z,4.56
2018-03-16T11:51:43.515Z,4.56
2018-03-16T11:52:44.988Z,4.56
2018-03-16T11:53:45.239Z,4.56
2018-03-16T11:54:46.262Z,4.56
2018-03-16T11:55:47.954Z,4.56
2018-03-16T11:56:49.250Z,4.56
2018-03-16T11:57:49.643Z,4.56
2018-03-16T11:58:50.704Z,4.56
2018-03-16T11:59:53.827Z,4.56
2018-03-16T12:00:52.202Z,4.56
2018-03-16T12:01:53.012Z,4.56
2018-03-16T12:02:55.057Z,4.56
2018-03-16T12:03:56.197Z,4.56
2018-03-16T12:04:58.527Z,4.56
2018-03-16T12:05:59.402Z,4.56
2018-03-16T12:06:58.778Z,4.56
2018-03-16T12:08:00.642Z,4.56
2018-03-16T12:09:00.889Z,4.56
2018-03-16T12:10:03.068Z,4.56
2018-03-16T12:11:03.677Z,4.56
2018-03-16T12:12:05.254Z,4.56
2018-03-16T12:13:06.400Z,4.56
2018-03-16T12:14:07.079Z,4.56
2018-03-16T12:15:07.680Z,4.56
2018-03-16T12:16:10.650Z,4.56
2018-03-16T12:17:09.820Z,4.56
2018-03-16T12:18:09.653Z,4.56
2018-03-16T12:19:10.305Z,4.56
2018-03-16T12:20:11.860Z,4.56
2018-03-16T12:21:12.268Z,4.56
2018-03-16T12:22:15.966Z,4.56
2018-03-16T12:23:17.975Z,4.56
2018-03-16T12:24:16.821Z,4.56
2018-03-16T12:25:16.868Z,4.56
2018-03-16T12:26:18.461Z,4.56
2018-03-16T12:27:19.927Z,4.56
2018-03-16T12:28:19.718Z,4.56
2018-03-16T12:29:22.038Z,4.56
2018-03-16T12:30:21.720Z,4.56
2018-03-16T12:31:23.109Z,4.56
2018-03-16T12:32:25.438Z,4.56
2018-03-16T12:33:25.844Z,4.56
2018-03-16T12:34:28.454Z,4.56
2018-03-16T12:35:27.841Z,4.56
2018-03-16T12:36:29.900Z,4.56
2018-03-16T12:37:29.419Z,4.56
2018-03-16T12:38:30.559Z,4.56
2018-03-16T12:39:32.478Z,4.56
2018-03-16T12:40:33.033Z,4.56
2018-03-16T12:41:34.769Z,4.56
2018-03-16T12:42:34.387Z,4.56
2018-03-16T12:43:35.828Z,4.56
2018-03-16T12:44:44.336Z,4.56
2018-03-16T12:45:37.527Z,4.56
2018-03-16T12:46:38.223Z,4.56
2018-03-16T12:47:39.726Z,4.56
2018-03-16T12:48:41.866Z,4.56
2018-03-16T12:49:42.991Z,4.56
2018-03-16T12:50:44.439Z,4.56
2018-03-16T12:53:17.721Z,4.56
2018-03-16T12:57:32.315Z,4.56
2018-03-16T12:59:49.547Z,4.56
2018-03-16T13:00:33.563Z,4.56
2018-03-16T13:01:16.087Z,4.56
2018-03-16T13:03:02.507Z,4.56
2018-03-16T13:04:52.074Z,4.56
2018-03-16T13:04:59.610Z,4.56
2018-03-16T13:06:00.347Z,4.63
2018-03-16T13:07:01.056Z,4.63
2018-03-16T13:08:02.194Z,4.63
2018-03-16T13:09:03.155Z,4.63
2018-03-16T13:10:04.251Z,4.63
2018-03-16T13:11:04.743Z,4.56
2018-03-16T13:12:05.958Z,4.63
2018-03-16T13:13:06.385Z,4.63
2018-03-16T13:14:08.414Z,4.56
2018-03-16T13:15:08.732Z,4.56
2018-03-16T13:16:11.765Z,4.63
2018-03-16T13:17:11.556Z,4.63
2018-03-16T13:18:12.467Z,4.63
2018-03-16T13:19:13.888Z,4.63
2018-03-16T13:20:13.742Z,4.63
2018-03-16T13:21:16.215Z,4.63
2018-03-16T13:22:17.427Z,4.56
2018-03-16T13:23:16.737Z,4.63
2018-03-16T13:24:20.345Z,4.63
2018-03-16T13:25:20.136Z,4.63
2018-03-16T13:26:20.549Z,4.63
2018-03-16T13:27:20.526Z,4.63
2018-03-16T13:28:21.732Z,4.63
2018-03-16T13:29:22.505Z,4.63
2018-03-16T13:30:26.161Z,4.63
2018-03-16T13:31:24.869Z,4.63
2018-03-16T13:32:25.599Z,4.63
2018-03-16T13:33:28.089Z,4.63
2018-03-16T13:35:07.330Z,4.63
2018-03-16T13:35:29.418Z,4.63
2018-03-16T13:36:30.077Z,4.63
2018-03-16T13:37:30.496Z,4.63
2018-03-16T13:38:31.655Z,4.63
2018-03-16T13:39:33.504Z,4.63